sensor_id;sensor_type;location;lat;lon;timestamp;pressure;altitude;pressure_sealevel;temperature
48628;BMP280;34424;52.234;6.500;2023-03-01T00:02:58;142761.44;;;-4.99
48628;BMP280;34424;52.234;6.500;2023-03-01T00:08:00;142759.00;;;-5.00
48628;BMP280;34424;52.234;6.500;2023-03-01T00:13:03;142749.22;;;-5.04
48628;BMP280;34424;52.234;6.500;2023-03-01T00:18:07;142754.09;;;-5.02
48628;BMP280;34424;52.234;6.500;2023-03-01T00:23:10;142756.53;;;-5.01
48628;BMP280;34424;52.234;6.500;2023-03-01T00:28:13;142762.66;;;-4.99
48628;BMP280;34424;52.234;6.500;2023-03-01T00:33:17;142751.66;;;-5.03
48628;BMP280;34424;52.234;6.500;2023-03-01T00:38:20;142728.47;;;-5.13
48628;BMP280;34424;52.234;6.500;2023-03-01T00:43:23;142715.03;;;-5.18
48628;BMP280;34424;52.234;6.500;2023-03-01T00:48:27;142693.00;;;-5.28
48628;BMP280;34424;52.234;6.500;2023-03-01T00:53:29;142685.69;;;-5.31
48628;BMP280;34424;52.234;6.500;2023-03-01T00:58:33;142667.38;;;-5.38
48628;BMP280;34424;52.234;6.500;2023-03-01T01:03:37;142646.56;;;-5.47
48628;BMP280;34424;52.234;6.500;2023-03-01T01:08:39;142622.16;;;-5.57
48628;BMP280;34424;52.234;6.500;2023-03-01T01:13:44;142629.50;;;-5.54
48628;BMP280;34424;52.234;6.500;2023-03-01T01:18:49;142631.94;;;-5.53
48628;BMP280;34424;52.234;6.500;2023-03-01T01:23:52;142620.94;;;-5.58
48628;BMP280;34424;52.234;6.500;2023-03-01T01:28:55;142597.75;;;-5.67
48628;BMP280;34424;52.234;6.500;2023-03-01T01:34:01;142569.63;;;-5.79
48628;BMP280;34424;52.234;6.500;2023-03-01T01:39:04;142561.09;;;-5.82
48628;BMP280;34424;52.234;6.500;2023-03-01T01:44:13;142556.22;;;-5.84
48628;BMP280;34424;52.234;6.500;2023-03-01T01:49:24;142520.84;;;-5.99
48628;BMP280;34424;52.234;6.500;2023-03-01T01:54:30;142511.06;;;-6.03
48628;BMP280;34424;52.234;6.500;2023-03-01T01:59:36;142507.41;;;-6.05
48628;BMP280;34424;52.234;6.500;2023-03-01T02:04:40;142500.09;;;-6.08
48628;BMP280;34424;52.234;6.500;2023-03-01T02:09:46;142492.78;;;-6.11
48628;BMP280;34424;52.234;6.500;2023-03-01T02:14:49;142501.31;;;-6.07
48628;BMP280;34424;52.234;6.500;2023-03-01T02:20:03;142520.84;;;-5.99
48628;BMP280;34424;52.234;6.500;2023-03-01T02:25:24;142509.84;;;-6.04
48628;BMP280;34424;52.234;6.500;2023-03-01T02:30:30;142503.75;;;-6.06
48628;BMP280;34424;52.234;6.500;2023-03-01T02:35:37;142490.34;;;-6.12
48628;BMP280;34424;52.234;6.500;2023-03-01T02:40:41;142470.78;;;-6.20
48628;BMP280;34424;52.234;6.500;2023-03-01T02:45:50;142448.81;;;-6.29
48628;BMP280;34424;52.234;6.500;2023-03-01T02:51:02;142430.53;;;-6.37
48628;BMP280;34424;52.234;6.500;2023-03-01T02:56:07;142457.34;;;-6.26
48628;BMP280;34424;52.234;6.500;2023-03-01T03:01:15;142494.00;;;-6.10
48628;BMP280;34424;52.234;6.500;2023-03-01T03:06:18;142490.34;;;-6.12
48628;BMP280;34424;52.234;6.500;2023-03-01T03:11:21;142470.78;;;-6.20
48628;BMP280;34424;52.234;6.500;2023-03-01T03:16:25;142457.34;;;-6.26
48628;BMP280;34424;52.234;6.500;2023-03-01T03:21:27;142446.38;;;-6.30
48628;BMP280;34424;52.234;6.500;2023-03-01T03:26:31;142426.88;;;-6.38
48628;BMP280;34424;52.234;6.500;2023-03-01T03:31:35;142426.88;;;-6.38
48628;BMP280;34424;52.234;6.500;2023-03-01T03:36:38;142415.84;;;-6.43
48628;BMP280;34424;52.234;6.500;2023-03-01T03:41:41;142410.97;;;-6.45
48628;BMP280;34424;52.234;6.500;2023-03-01T03:46:45;142409.75;;;-6.45
48628;BMP280;34424;52.234;6.500;2023-03-01T03:51:47;142404.88;;;-6.47
48628;BMP280;34424;52.234;6.500;2023-03-01T03:56:50;142412.19;;;-6.44
48628;BMP280;34424;52.234;6.500;2023-03-01T04:01:54;142408.53;;;-6.46
48628;BMP280;34424;52.234;6.500;2023-03-01T04:06:57;142425.59;;;-6.39
48628;BMP280;34424;52.234;6.500;2023-03-01T04:11:59;142436.63;;;-6.34
48628;BMP280;34424;52.234;6.500;2023-03-01T04:17:03;142426.88;;;-6.38
48628;BMP280;34424;52.234;6.500;2023-03-01T04:22:06;142417.06;;;-6.42
48628;BMP280;34424;52.234;6.500;2023-03-01T04:27:11;142412.19;;;-6.44
48628;BMP280;34424;52.234;6.500;2023-03-01T04:32:15;142429.31;;;-6.37
48628;BMP280;34424;52.234;6.500;2023-03-01T04:37:19;142430.53;;;-6.37
48628;BMP280;34424;52.234;6.500;2023-03-01T04:42:21;142420.72;;;-6.41
48628;BMP280;34424;52.234;6.500;2023-03-01T04:47:25;142412.19;;;-6.44
48628;BMP280;34424;52.234;6.500;2023-03-01T04:52:28;142412.19;;;-6.44
48628;BMP280;34424;52.234;6.500;2023-03-01T04:57:31;142408.53;;;-6.46
48628;BMP280;34424;52.234;6.500;2023-03-01T05:02:35;142397.53;;;-6.51
48628;BMP280;34424;52.234;6.500;2023-03-01T05:07:37;142410.97;;;-6.45
48628;BMP280;34424;52.234;6.500;2023-03-01T05:12:40;142412.19;;;-6.44
48628;BMP280;34424;52.234;6.500;2023-03-01T05:17:44;142408.53;;;-6.46
48628;BMP280;34424;52.234;6.500;2023-03-01T05:22:47;142412.19;;;-6.44
48628;BMP280;34424;52.234;6.500;2023-03-01T05:27:50;142412.19;;;-6.44
48628;BMP280;34424;52.234;6.500;2023-03-01T05:32:54;142412.19;;;-6.44
48628;BMP280;34424;52.234;6.500;2023-03-01T05:37:57;142392.66;;;-6.53
48628;BMP280;34424;52.234;6.500;2023-03-01T05:43:00;142384.13;;;-6.56
48628;BMP280;34424;52.234;6.500;2023-03-01T05:48:05;142393.88;;;-6.52
48628;BMP280;34424;52.234;6.500;2023-03-01T05:53:10;142391.44;;;-6.53
48628;BMP280;34424;52.234;6.500;2023-03-01T05:58:16;142382.91;;;-6.57
48628;BMP280;34424;52.234;6.500;2023-03-01T06:03:20;142384.13;;;-6.56
48628;BMP280;34424;52.234;6.500;2023-03-01T06:08:23;142380.47;;;-6.58
48628;BMP280;34424;52.234;6.500;2023-03-01T06:13:28;142370.72;;;-6.62
48628;BMP280;34424;52.234;6.500;2023-03-01T06:18:32;142360.91;;;-6.66
48628;BMP280;34424;52.234;6.500;2023-03-01T06:23:35;142376.81;;;-6.59
48628;BMP280;34424;52.234;6.500;2023-03-01T06:28:38;142399.97;;;-6.50
48628;BMP280;34424;52.234;6.500;2023-03-01T06:33:42;142418.28;;;-6.42
48628;BMP280;34424;52.234;6.500;2023-03-01T06:38:45;142445.16;;;-6.31
48628;BMP280;34424;52.234;6.500;2023-03-01T06:43:48;142475.66;;;-6.18
48628;BMP280;34424;52.234;6.500;2023-03-01T06:48:52;142503.75;;;-6.06
48628;BMP280;34424;52.234;6.500;2023-03-01T06:53:55;142539.13;;;-5.92
48628;BMP280;34424;52.234;6.500;2023-03-01T06:58:58;142587.94;;;-5.71
48628;BMP280;34424;52.234;6.500;2023-03-01T07:04:02;142649.00;;;-5.46
48628;BMP280;34424;52.234;6.500;2023-03-01T07:09:05;142695.44;;;-5.27
48628;BMP280;34424;52.234;6.500;2023-03-01T07:14:08;142745.56;;;-5.06
48628;BMP280;34424;52.234;6.500;2023-03-01T07:19:12;142800.56;;;-4.83
48628;BMP280;34424;52.234;6.500;2023-03-01T07:24:16;142884.94;;;-4.48
48628;BMP280;34424;52.234;6.500;2023-03-01T07:29:18;143201.78;;;-3.16
48628;BMP280;34424;52.234;6.500;2023-03-01T07:34:22;143478.59;;;-2.01
48628;BMP280;34424;52.234;6.500;2023-03-01T07:39:25;143792.44;;;-0.71
48628;BMP280;34424;52.234;6.500;2023-03-01T07:44:27;144551.66;;;2.43
48628;BMP280;34424;52.234;6.500;2023-03-01T07:49:31;145047.78;;;4.48
48628;BMP280;34424;52.234;6.500;2023-03-01T07:54:34;145262.28;;;5.36
48628;BMP280;34424;52.234;6.500;2023-03-01T07:59:37;145238.88;;;5.27
48628;BMP280;34424;52.234;6.500;2023-03-01T08:04:41;145409.13;;;5.97
48628;BMP280;34424;52.234;6.500;2023-03-01T08:09:44;145574.47;;;6.65
48628;BMP280;34424;52.234;6.500;2023-03-01T08:14:46;145821.44;;;7.66
48628;BMP280;34424;52.234;6.500;2023-03-01T08:19:50;145930.16;;;8.11
48628;BMP280;34424;52.234;6.500;2023-03-01T08:24:53;145952.41;;;8.20
48628;BMP280;34424;52.234;6.500;2023-03-01T08:29:57;146110.69;;;8.85
48628;BMP280;34424;52.234;6.500;2023-03-01T08:35:01;146140.34;;;8.98
48628;BMP280;34424;52.234;6.500;2023-03-01T08:40:04;146338.28;;;9.79
48628;BMP280;34424;52.234;6.500;2023-03-01T08:45:09;146306.09;;;9.66
48628;BMP280;34424;52.234;6.500;2023-03-01T08:50:14;146338.28;;;9.79
48628;BMP280;34424;52.234;6.500;2023-03-01T08:55:17;146375.41;;;9.94
48628;BMP280;34424;52.234;6.500;2023-03-01T09:00:20;146204.69;;;9.24
48628;BMP280;34424;52.234;6.500;2023-03-01T09:05:25;146338.28;;;9.79
48628;BMP280;34424;52.234;6.500;2023-03-01T09:10:28;146398.91;;;10.04
48628;BMP280;34424;52.234;6.500;2023-03-01T09:15:31;146572.25;;;10.75
48628;BMP280;34424;52.234;6.500;2023-03-01T09:20:36;146498.00;;;10.44
48628;BMP280;34424;52.234;6.500;2023-03-01T09:25:38;146744.44;;;11.46
48628;BMP280;34424;52.234;6.500;2023-03-01T09:30:42;146689.91;;;11.23
48628;BMP280;34424;52.234;6.500;2023-03-01T09:35:46;146709.72;;;11.31
48628;BMP280;34424;52.234;6.500;2023-03-01T09:40:49;146898.16;;;12.09
48628;BMP280;34424;52.234;6.500;2023-03-01T09:45:53;146815.06;;;11.75
48628;BMP280;34424;52.234;6.500;2023-03-01T09:51:03;146882.00;;;12.02
48628;BMP280;34424;52.234;6.500;2023-03-01T09:56:14;146790.28;;;11.64
48628;BMP280;34424;52.234;6.500;2023-03-01T10:01:29;146761.75;;;11.53
48628;BMP280;34424;52.234;6.500;2023-03-01T10:06:38;146858.47;;;11.92
48628;BMP280;34424;52.234;6.500;2023-03-01T10:11:47;146651.50;;;11.07
48628;BMP280;34424;52.234;6.500;2023-03-01T10:16:54;146756.81;;;11.51
48628;BMP280;34424;52.234;6.500;2023-03-01T10:22:04;147003.50;;;12.52
48628;BMP280;34424;52.234;6.500;2023-03-01T10:27:09;147039.47;;;12.67
48628;BMP280;34424;52.234;6.500;2023-03-01T10:32:15;147068.03;;;12.78
48628;BMP280;34424;52.234;6.500;2023-03-01T10:37:21;146968.81;;;12.38
48628;BMP280;34424;52.234;6.500;2023-03-01T10:42:28;146940.28;;;12.26
48628;BMP280;34424;52.234;6.500;2023-03-01T10:47:31;146873.34;;;11.98
48628;BMP280;34424;52.234;6.500;2023-03-01T10:52:36;146880.78;;;12.02
48628;BMP280;34424;52.234;6.500;2023-03-01T10:57:40;146743.19;;;11.45
48628;BMP280;34424;52.234;6.500;2023-03-01T11:02:43;146865.91;;;11.95
48628;BMP280;34424;52.234;6.500;2023-03-01T11:07:51;146930.38;;;12.22
48628;BMP280;34424;52.234;6.500;2023-03-01T11:13:06;146860.97;;;11.93
48628;BMP280;34424;52.234;6.500;2023-03-01T11:18:19;147046.91;;;12.70
48628;BMP280;34424;52.234;6.500;2023-03-01T11:23:32;146961.38;;;12.35
48628;BMP280;34424;52.234;6.500;2023-03-01T11:28:38;146841.16;;;11.85
48628;BMP280;34424;52.234;6.500;2023-03-01T11:33:46;146895.69;;;12.08
48628;BMP280;34424;52.234;6.500;2023-03-01T11:38:53;146754.34;;;11.50
48628;BMP280;34424;52.234;6.500;2023-03-01T11:43:59;146715.91;;;11.34
48628;BMP280;34424;52.234;6.500;2023-03-01T11:49:13;146703.53;;;11.29
48628;BMP280;34424;52.234;6.500;2023-03-01T11:54:25;146786.56;;;11.63
48628;BMP280;34424;52.234;6.500;2023-03-01T11:59:48;146730.81;;;11.40
48628;BMP280;34424;52.234;6.500;2023-03-01T12:05:05;146828.72;;;11.80
48628;BMP280;34424;52.234;6.500;2023-03-01T12:10:25;146744.44;;;11.46
48628;BMP280;34424;52.234;6.500;2023-03-01T12:15:39;146828.72;;;11.80
48628;BMP280;34424;52.234;6.500;2023-03-01T12:20:54;146688.69;;;11.23
48628;BMP280;34424;52.234;6.500;2023-03-01T12:26:06;146649.03;;;11.06
48628;BMP280;34424;52.234;6.500;2023-03-01T12:31:35;146683.72;;;11.21
48628;BMP280;34424;52.234;6.500;2023-03-01T12:36:53;146624.28;;;10.96
48628;BMP280;34424;52.234;6.500;2023-03-01T12:42:04;146787.81;;;11.63
48628;BMP280;34424;52.234;6.500;2023-03-01T12:47:23;146789.06;;;11.64
48628;BMP280;34424;52.234;6.500;2023-03-01T12:52:35;146673.84;;;11.17
48628;BMP280;34424;52.234;6.500;2023-03-01T12:57:42;146743.19;;;11.45
48628;BMP280;34424;52.234;6.500;2023-03-01T13:02:52;146816.28;;;11.75
48628;BMP280;34424;52.234;6.500;2023-03-01T13:08:01;146869.63;;;11.97
48628;BMP280;34424;52.234;6.500;2023-03-01T13:13:18;146785.34;;;11.62
48628;BMP280;34424;52.234;6.500;2023-03-01T13:18:31;146789.06;;;11.64
48628;BMP280;34424;52.234;6.500;2023-03-01T13:23:39;146786.56;;;11.63
48628;BMP280;34424;52.234;6.500;2023-03-01T13:28:49;146761.75;;;11.53
48628;BMP280;34424;52.234;6.500;2023-03-01T13:33:53;146869.63;;;11.97
48628;BMP280;34424;52.234;6.500;2023-03-01T13:38:56;146718.38;;;11.35
48628;BMP280;34424;52.234;6.500;2023-03-01T13:44:01;146734.53;;;11.42
48628;BMP280;34424;52.234;6.500;2023-03-01T13:49:03;146630.47;;;10.99
48628;BMP280;34424;52.234;6.500;2023-03-01T13:54:11;146732.06;;;11.41
48628;BMP280;34424;52.234;6.500;2023-03-01T13:59:18;146618.09;;;10.94
48628;BMP280;34424;52.234;6.500;2023-03-01T14:04:23;146713.44;;;11.33
48628;BMP280;34424;52.234;6.500;2023-03-01T14:09:28;146559.91;;;10.70
48628;BMP280;34424;52.234;6.500;2023-03-01T14:14:53;146228.16;;;9.34
48628;BMP280;34424;52.234;6.500;2023-03-01T14:19:59;146127.97;;;8.92
48628;BMP280;34424;52.234;6.500;2023-03-01T14:25:14;146048.88;;;8.60
48628;BMP280;34424;52.234;6.500;2023-03-01T14:30:23;146036.50;;;8.55
48628;BMP280;34424;52.234;6.500;2023-03-01T14:35:28;146052.56;;;8.61
48628;BMP280;34424;52.234;6.500;2023-03-01T14:40:34;146073.56;;;8.70
48628;BMP280;34424;52.234;6.500;2023-03-01T14:45:38;146008.06;;;8.43
48628;BMP280;34424;52.234;6.500;2023-03-01T14:50:43;146017.94;;;8.47
48628;BMP280;34424;52.234;6.500;2023-03-01T14:55:49;146103.28;;;8.82
48628;BMP280;34424;52.234;6.500;2023-03-01T15:00:56;146100.78;;;8.81
48628;BMP280;34424;52.234;6.500;2023-03-01T15:06:00;145974.66;;;8.29
48628;BMP280;34424;52.234;6.500;2023-03-01T15:11:16;145902.97;;;8.00
48628;BMP280;34424;52.234;6.500;2023-03-01T15:16:22;145973.44;;;8.29
48628;BMP280;34424;52.234;6.500;2023-03-01T15:21:27;145979.59;;;8.31
48628;BMP280;34424;52.234;6.500;2023-03-01T15:26:35;145993.25;;;8.37
48628;BMP280;34424;52.234;6.500;2023-03-01T15:31:41;145940.03;;;8.15
48628;BMP280;34424;52.234;6.500;2023-03-01T15:36:45;145885.66;;;7.93
48628;BMP280;34424;52.234;6.500;2023-03-01T15:41:51;145794.22;;;7.55
48628;BMP280;34424;52.234;6.500;2023-03-01T15:46:55;145737.41;;;7.32
48628;BMP280;34424;52.234;6.500;2023-03-01T15:51:59;145722.59;;;7.26
48628;BMP280;34424;52.234;6.500;2023-03-01T15:57:04;145841.19;;;7.75
48628;BMP280;34424;52.234;6.500;2023-03-01T16:02:10;145874.56;;;7.88
48628;BMP280;34424;52.234;6.500;2023-03-01T16:07:14;145670.75;;;7.04
48628;BMP280;34424;52.234;6.500;2023-03-01T16:12:16;145495.47;;;6.32
48628;BMP280;34424;52.234;6.500;2023-03-01T16:17:23;145405.41;;;5.95
48628;BMP280;34424;52.234;6.500;2023-03-01T16:22:27;145333.78;;;5.66
48628;BMP280;34424;52.234;6.500;2023-03-01T16:27:30;145270.91;;;5.40
48628;BMP280;34424;52.234;6.500;2023-03-01T16:32:37;145201.88;;;5.11
48628;BMP280;34424;52.234;6.500;2023-03-01T16:37:40;145140.25;;;4.86
48628;BMP280;34424;52.234;6.500;2023-03-01T16:42:43;145088.47;;;4.65
48628;BMP280;34424;52.234;6.500;2023-03-01T16:47:47;145044.09;;;4.46
48628;BMP280;34424;52.234;6.500;2023-03-01T16:52:50;144982.50;;;4.21
48628;BMP280;34424;52.234;6.500;2023-03-01T16:57:52;144925.84;;;3.97
48628;BMP280;34424;52.234;6.500;2023-03-01T17:02:56;144887.69;;;3.82
48628;BMP280;34424;52.234;6.500;2023-03-01T17:07:59;144815.00;;;3.52
48628;BMP280;34424;52.234;6.500;2023-03-01T17:13:02;144760.84;;;3.29
48628;BMP280;34424;52.234;6.500;2023-03-01T17:18:06;144699.28;;;3.04
48628;BMP280;34424;52.234;6.500;2023-03-01T17:23:09;144632.84;;;2.76
48628;BMP280;34424;52.234;6.500;2023-03-01T17:28:13;144598.44;;;2.62
48628;BMP280;34424;52.234;6.500;2023-03-01T17:33:17;144539.38;;;2.38
48628;BMP280;34424;52.234;6.500;2023-03-01T17:38:20;144477.84;;;2.12
48628;BMP280;34424;52.234;6.500;2023-03-01T17:43:23;144401.63;;;1.81
48628;BMP280;34424;52.234;6.500;2023-03-01T17:48:26;144368.47;;;1.67
48628;BMP280;34424;52.234;6.500;2023-03-01T17:53:29;144292.22;;;1.36
48628;BMP280;34424;52.234;6.500;2023-03-01T17:58:32;144239.38;;;1.14
48628;BMP280;34424;52.234;6.500;2023-03-01T18:03:36;144257.84;;;1.21
48628;BMP280;34424;52.234;6.500;2023-03-01T18:08:40;144249.19;;;1.18
48628;BMP280;34424;52.234;6.500;2023-03-01T18:13:43;144222.19;;;1.07
48628;BMP280;34424;52.234;6.500;2023-03-01T18:18:51;144192.69;;;0.95
48628;BMP280;34424;52.234;6.500;2023-03-01T18:23:54;144165.66;;;0.83
48628;BMP280;34424;52.234;6.500;2023-03-01T18:28:57;144168.13;;;0.84
48628;BMP280;34424;52.234;6.500;2023-03-01T18:34:03;144169.34;;;0.85
48628;BMP280;34424;52.234;6.500;2023-03-01T18:39:06;144195.19;;;0.96
48628;BMP280;34424;52.234;6.500;2023-03-01T18:44:09;144238.16;;;1.13
48628;BMP280;34424;52.234;6.500;2023-03-01T18:49:14;144235.69;;;1.12
48628;BMP280;34424;52.234;6.500;2023-03-01T18:54:17;144241.81;;;1.15
48628;BMP280;34424;52.234;6.500;2023-03-01T18:59:19;144207.47;;;1.01
48628;BMP280;34424;52.234;6.500;2023-03-01T19:04:23;144180.41;;;0.89
48628;BMP280;34424;52.234;6.500;2023-03-01T19:09:27;144160.75;;;0.81
48628;BMP280;34424;52.234;6.500;2023-03-01T19:14:30;144104.25;;;0.58
48628;BMP280;34424;52.234;6.500;2023-03-01T19:19:34;144067.41;;;0.43
48628;BMP280;34424;52.234;6.500;2023-03-01T19:24:37;144062.50;;;0.41
48628;BMP280;34424;52.234;6.500;2023-03-01T19:29:40;144050.22;;;0.36
48628;BMP280;34424;52.234;6.500;2023-03-01T19:34:44;143975.34;;;0.05
48628;BMP280;34424;52.234;6.500;2023-03-01T19:39:47;143918.88;;;-0.19
48628;BMP280;34424;52.234;6.500;2023-03-01T19:44:50;143921.34;;;-0.18
48628;BMP280;34424;52.234;6.500;2023-03-01T19:49:54;143898.00;;;-0.27
48628;BMP280;34424;52.234;6.500;2023-03-01T19:54:57;143905.34;;;-0.24
48628;BMP280;34424;52.234;6.500;2023-03-01T20:00:10;143925.00;;;-0.16
48628;BMP280;34424;52.234;6.500;2023-03-01T20:05:14;143937.28;;;-0.11
48628;BMP280;34424;52.234;6.500;2023-03-01T20:10:17;143936.03;;;-0.12
48628;BMP280;34424;52.234;6.500;2023-03-01T20:15:20;143950.75;;;-0.06
48628;BMP280;34424;52.234;6.500;2023-03-01T20:20:24;143932.38;;;-0.13
48628;BMP280;34424;52.234;6.500;2023-03-01T20:25:26;143894.31;;;-0.29
48628;BMP280;34424;52.234;6.500;2023-03-01T20:30:29;143896.75;;;-0.28
48628;BMP280;34424;52.234;6.500;2023-03-01T20:35:33;143885.72;;;-0.33
48628;BMP280;34424;52.234;6.500;2023-03-01T20:40:36;143855.06;;;-0.45
48628;BMP280;34424;52.234;6.500;2023-03-01T20:45:39;143861.19;;;-0.43
48628;BMP280;34424;52.234;6.500;2023-03-01T20:50:43;143839.09;;;-0.52
48628;BMP280;34424;52.234;6.500;2023-03-01T20:55:46;143809.66;;;-0.64
48628;BMP280;34424;52.234;6.500;2023-03-01T21:00:49;143802.31;;;-0.67
48628;BMP280;34424;52.234;6.500;2023-03-01T21:05:55;143817.00;;;-0.61
48628;BMP280;34424;52.234;6.500;2023-03-01T21:10:58;143796.19;;;-0.70
48628;BMP280;34424;52.234;6.500;2023-03-01T21:16:02;143818.25;;;-0.60
48628;BMP280;34424;52.234;6.500;2023-03-01T21:21:08;143785.09;;;-0.74
48628;BMP280;34424;52.234;6.500;2023-03-01T21:26:13;143765.50;;;-0.82
48628;BMP280;34424;52.234;6.500;2023-03-01T21:31:18;143734.81;;;-0.95
48628;BMP280;34424;52.234;6.500;2023-03-01T21:36:23;143744.66;;;-0.91
48628;BMP280;34424;52.234;6.500;2023-03-01T21:41:27;143733.56;;;-0.96
48628;BMP280;34424;52.234;6.500;2023-03-01T21:46:32;143739.75;;;-0.93
48628;BMP280;34424;52.234;6.500;2023-03-01T21:51:38;143733.56;;;-0.96
48628;BMP280;34424;52.234;6.500;2023-03-01T21:56:41;143760.59;;;-0.84
48628;BMP280;34424;52.234;6.500;2023-03-01T22:01:44;143797.41;;;-0.69
48628;BMP280;34424;52.234;6.500;2023-03-01T22:06:48;143808.44;;;-0.65
48628;BMP280;34424;52.234;6.500;2023-03-01T22:11:55;143807.22;;;-0.65
48628;BMP280;34424;52.234;6.500;2023-03-01T22:17:02;143853.84;;;-0.46
48628;BMP280;34424;52.234;6.500;2023-03-01T22:22:06;143856.28;;;-0.45
48628;BMP280;34424;52.234;6.500;2023-03-01T22:27:09;143856.28;;;-0.45
48628;BMP280;34424;52.234;6.500;2023-03-01T22:32:12;143839.09;;;-0.52
48628;BMP280;34424;52.234;6.500;2023-03-01T22:37:16;143805.97;;;-0.66
48628;BMP280;34424;52.234;6.500;2023-03-01T22:42:19;143792.44;;;-0.71
48628;BMP280;34424;52.234;6.500;2023-03-01T22:47:21;143810.88;;;-0.64
48628;BMP280;34424;52.234;6.500;2023-03-01T22:52:25;143809.66;;;-0.64
48628;BMP280;34424;52.234;6.500;2023-03-01T22:57:28;143814.56;;;-0.62
48628;BMP280;34424;52.234;6.500;2023-03-01T23:02:31;143808.44;;;-0.65
48628;BMP280;34424;52.234;6.500;2023-03-01T23:07:36;143799.84;;;-0.68
48628;BMP280;34424;52.234;6.500;2023-03-01T23:12:39;143793.72;;;-0.71
48628;BMP280;34424;52.234;6.500;2023-03-01T23:17:42;143780.19;;;-0.76
48628;BMP280;34424;52.234;6.500;2023-03-01T23:22:46;143778.97;;;-0.77
48628;BMP280;34424;52.234;6.500;2023-03-01T23:27:49;143772.84;;;-0.79
48628;BMP280;34424;52.234;6.500;2023-03-01T23:32:52;143810.88;;;-0.64
48628;BMP280;34424;52.234;6.500;2023-03-01T23:37:56;143813.34;;;-0.63
48628;BMP280;34424;52.234;6.500;2023-03-01T23:42:58;143831.72;;;-0.55
48628;BMP280;34424;52.234;6.500;2023-03-01T23:48:01;143844.00;;;-0.50
48628;BMP280;34424;52.234;6.500;2023-03-01T23:53:05;143848.88;;;-0.48
48628;BMP280;34424;52.234;6.500;2023-03-01T23:58:08;143846.44;;;-0.49
